sensor_id;sensor_type;location;lat;lon;timestamp;pressure;altitude;pressure_sealevel;temperature;humidity
8637;BME280;4356;49.068;8.658;2023-05-24T00:01:50;100288.50;;;23.45;42.22
8637;BME280;4356;49.068;8.658;2023-05-24T00:04:15;100284.69;;;23.46;42.39
8637;BME280;4356;49.068;8.658;2023-05-24T00:06:43;100276.66;;;23.44;42.41
8637;BME280;4356;49.068;8.658;2023-05-24T00:09:09;100265.63;;;23.39;42.25
8637;BME280;4356;49.068;8.658;2023-05-24T00:11:36;100273.38;;;23.42;42.07
8637;BME280;4356;49.068;8.658;2023-05-24T00:14:01;100271.44;;;23.43;42.41
8637;BME280;4356;49.068;8.658;2023-05-24T00:16:27;100262.28;;;23.37;42.26
8637;BME280;4356;49.068;8.658;2023-05-24T00:18:53;100259.06;;;23.40;42.41
8637;BME280;4356;49.068;8.658;2023-05-24T00:21:19;100261.81;;;23.40;42.36
8637;BME280;4356;49.068;8.658;2023-05-24T00:23:45;100244.44;;;23.35;42.52
8637;BME280;4356;49.068;8.658;2023-05-24T00:26:11;100244.75;;;23.38;42.51
8637;BME280;4356;49.068;8.658;2023-05-24T00:28:37;100233.91;;;23.32;42.58
8637;BME280;4356;49.068;8.658;2023-05-24T00:31:03;100239.53;;;23.37;42.38
8637;BME280;4356;49.068;8.658;2023-05-24T00:33:28;100240.00;;;23.34;42.39
8637;BME280;4356;49.068;8.658;2023-05-24T00:35:54;100236.44;;;23.33;42.44
8637;BME280;4356;49.068;8.658;2023-05-24T00:38:26;100232.28;;;23.31;42.49
8637;BME280;4356;49.068;8.658;2023-05-24T00:40:52;100234.75;;;23.32;42.50
8637;BME280;4356;49.068;8.658;2023-05-24T00:43:21;100239.91;;;23.29;42.32
8637;BME280;4356;49.068;8.658;2023-05-24T00:45:46;100245.38;;;23.29;42.48
8637;BME280;4356;49.068;8.658;2023-05-24T00:48:12;100243.94;;;23.26;42.20
8637;BME280;4356;49.068;8.658;2023-05-24T00:50:39;100251.34;;;23.26;42.38
8637;BME280;4356;49.068;8.658;2023-05-24T00:53:05;100242.53;;;23.24;42.36
8637;BME280;4356;49.068;8.658;2023-05-24T00:55:33;100240.38;;;23.26;42.23
8637;BME280;4356;49.068;8.658;2023-05-24T00:58:01;100239.78;;;23.24;42.27
8637;BME280;4356;49.068;8.658;2023-05-24T01:00:28;100245.53;;;23.22;42.33
8637;BME280;4356;49.068;8.658;2023-05-24T01:02:53;100242.19;;;23.20;42.30
8637;BME280;4356;49.068;8.658;2023-05-24T01:05:19;100244.09;;;23.20;42.32
8637;BME280;4356;49.068;8.658;2023-05-24T01:10:39;100245.19;;;23.19;42.44
8637;BME280;4356;49.068;8.658;2023-05-24T01:13:29;100242.91;;;23.16;42.42
8637;BME280;4356;49.068;8.658;2023-05-24T01:16:04;100248.63;;;23.14;42.26
8637;BME280;4356;49.068;8.658;2023-05-24T01:18:34;100241.72;;;23.12;42.26
8637;BME280;4356;49.068;8.658;2023-05-24T01:21:37;100254.63;;;23.11;42.10
8637;BME280;4356;49.068;8.658;2023-05-24T01:24:31;100246.84;;;23.08;42.39
8637;BME280;4356;49.068;8.658;2023-05-24T01:27:11;100244.63;;;23.05;42.52
8637;BME280;4356;49.068;8.658;2023-05-24T01:29:37;100241.03;;;23.05;42.46
8637;BME280;4356;49.068;8.658;2023-05-24T01:32:04;100248.09;;;23.01;42.58
8637;BME280;4356;49.068;8.658;2023-05-24T01:34:29;100242.25;;;22.97;42.49
8637;BME280;4356;49.068;8.658;2023-05-24T01:36:55;100242.84;;;22.99;42.42
8637;BME280;4356;49.068;8.658;2023-05-24T01:39:23;100259.88;;;23.01;42.46
8637;BME280;4356;49.068;8.658;2023-05-24T01:50:24;100260.53;;;22.92;42.81
8637;BME280;4356;49.068;8.658;2023-05-24T01:52:51;100260.53;;;22.92;42.57
8637;BME280;4356;49.068;8.658;2023-05-24T01:55:17;100261.59;;;22.91;42.44
8637;BME280;4356;49.068;8.658;2023-05-24T01:57:45;100266.22;;;22.90;42.62
8637;BME280;4356;49.068;8.658;2023-05-24T02:00:17;100259.94;;;22.90;42.58
8637;BME280;4356;49.068;8.658;2023-05-24T02:02:44;100267.22;;;22.84;42.58
8637;BME280;4356;49.068;8.658;2023-05-24T02:05:09;100269.69;;;22.86;42.77
8637;BME280;4356;49.068;8.658;2023-05-24T02:07:36;100273.50;;;22.85;42.59
8637;BME280;4356;49.068;8.658;2023-05-24T02:10:02;100281.16;;;22.83;42.76
8637;BME280;4356;49.068;8.658;2023-05-24T02:12:28;100280.31;;;22.82;42.59
8637;BME280;4356;49.068;8.658;2023-05-24T02:14:53;100276.50;;;22.83;42.68
8637;BME280;4356;49.068;8.658;2023-05-24T02:17:21;100283.06;;;22.82;42.78
8637;BME280;4356;49.068;8.658;2023-05-24T02:19:47;100269.81;;;22.79;42.90
8637;BME280;4356;49.068;8.658;2023-05-24T02:22:12;100271.75;;;22.79;42.71
8637;BME280;4356;49.068;8.658;2023-05-24T02:24:38;100274.50;;;22.79;42.73
8637;BME280;4356;49.068;8.658;2023-05-24T02:27:05;100277.47;;;22.77;42.61
8637;BME280;4356;49.068;8.658;2023-05-24T02:29:30;100277.94;;;22.74;42.76
8637;BME280;4356;49.068;8.658;2023-05-24T02:31:56;100280.66;;;22.74;42.65
8637;BME280;4356;49.068;8.658;2023-05-24T02:34:22;100284.00;;;22.76;42.78
8637;BME280;4356;49.068;8.658;2023-05-24T02:36:48;100280.91;;;22.73;42.79
8637;BME280;4356;49.068;8.658;2023-05-24T02:39:14;100274.59;;;22.72;42.85
8637;BME280;4356;49.068;8.658;2023-05-24T02:41:39;100283.66;;;22.73;42.69
8637;BME280;4356;49.068;8.658;2023-05-24T02:44:05;100285.56;;;22.72;42.72
8637;BME280;4356;49.068;8.658;2023-05-24T02:46:31;100275.56;;;22.66;42.80
8637;BME280;4356;49.068;8.658;2023-05-24T02:48:56;100278.66;;;22.70;42.73
8637;BME280;4356;49.068;8.658;2023-05-24T02:51:22;100273.91;;;22.65;42.92
8637;BME280;4356;49.068;8.658;2023-05-24T02:53:47;100278.31;;;22.66;42.93
8637;BME280;4356;49.068;8.658;2023-05-24T02:56:13;100283.19;;;22.64;42.83
8637;BME280;4356;49.068;8.658;2023-05-24T02:58:44;100284.25;;;22.63;42.86
8637;BME280;4356;49.068;8.658;2023-05-24T03:01:13;100277.97;;;22.63;42.81
8637;BME280;4356;49.068;8.658;2023-05-24T03:03:38;100279.88;;;22.62;42.79
8637;BME280;4356;49.068;8.658;2023-05-24T03:06:07;100283.66;;;22.61;42.88
8637;BME280;4356;49.068;8.658;2023-05-24T03:08:33;100275.69;;;22.60;42.79
8637;BME280;4356;49.068;8.658;2023-05-24T03:10:59;100268.06;;;22.62;42.72
8637;BME280;4356;49.068;8.658;2023-05-24T03:13:24;100259.75;;;22.57;42.82
8637;BME280;4356;49.068;8.658;2023-05-24T03:15:50;100269.63;;;22.58;42.99
8637;BME280;4356;49.068;8.658;2023-05-24T03:18:15;100267.13;;;22.56;42.89
8637;BME280;4356;49.068;8.658;2023-05-24T03:20:41;100261.63;;;22.56;42.75
8637;BME280;4356;49.068;8.658;2023-05-24T03:23:06;100257.25;;;22.55;42.77
8637;BME280;4356;49.068;8.658;2023-05-24T03:25:33;100260.66;;;22.50;42.85
8637;BME280;4356;49.068;8.658;2023-05-24T03:27:59;100259.59;;;22.52;42.88
8637;BME280;4356;49.068;8.658;2023-05-24T03:30:27;100254.38;;;22.50;43.02
8637;BME280;4356;49.068;8.658;2023-05-24T03:32:52;100251.50;;;22.45;42.76
8637;BME280;4356;49.068;8.658;2023-05-24T03:35:18;100266.38;;;22.49;42.74
8637;BME280;4356;49.068;8.658;2023-05-24T03:37:43;100259.84;;;22.50;42.84
8637;BME280;4356;49.068;8.658;2023-05-24T03:40:09;100262.19;;;22.46;42.95
8637;BME280;4356;49.068;8.658;2023-05-24T03:42:35;100249.50;;;22.40;42.81
8637;BME280;4356;49.068;8.658;2023-05-24T03:45:00;100247.81;;;22.39;42.88
8637;BME280;4356;49.068;8.658;2023-05-24T03:47:26;100270.41;;;22.46;43.08
8637;BME280;4356;49.068;8.658;2023-05-24T03:49:51;100267.13;;;22.44;42.89
8637;BME280;4356;49.068;8.658;2023-05-24T03:52:17;100265.69;;;22.42;42.94
8637;BME280;4356;49.068;8.658;2023-05-24T03:54:42;100256.03;;;22.39;42.85
8637;BME280;4356;49.068;8.658;2023-05-24T03:57:09;100258.75;;;22.39;42.78
8637;BME280;4356;49.068;8.658;2023-05-24T03:59:35;100272.00;;;22.42;42.92
8637;BME280;4356;49.068;8.658;2023-05-24T04:02:01;100270.31;;;22.41;43.13
8637;BME280;4356;49.068;8.658;2023-05-24T04:04:26;100276.28;;;22.38;43.12
8637;BME280;4356;49.068;8.658;2023-05-24T04:06:52;100270.78;;;22.38;43.06
8637;BME280;4356;49.068;8.658;2023-05-24T04:09:18;100279.84;;;22.39;42.99
8637;BME280;4356;49.068;8.658;2023-05-24T04:11:44;100274.84;;;22.36;43.06
8637;BME280;4356;49.068;8.658;2023-05-24T04:14:09;100279.72;;;22.34;43.01
8637;BME280;4356;49.068;8.658;2023-05-24T04:16:36;100279.25;;;22.37;43.00
8637;BME280;4356;49.068;8.658;2023-05-24T04:19:04;100277.81;;;22.34;42.98
8637;BME280;4356;49.068;8.658;2023-05-24T04:21:30;100283.06;;;22.36;43.18
8637;BME280;4356;49.068;8.658;2023-05-24T04:23:56;100272.13;;;22.24;42.99
8637;BME280;4356;49.068;8.658;2023-05-24T04:26:24;100277.81;;;22.34;43.12
8637;BME280;4356;49.068;8.658;2023-05-24T04:28:50;100278.06;;;22.33;43.16
8637;BME280;4356;49.068;8.658;2023-05-24T04:31:15;100279.59;;;22.29;42.98
8637;BME280;4356;49.068;8.658;2023-05-24T04:33:41;100282.94;;;22.31;43.04
8637;BME280;4356;49.068;8.658;2023-05-24T04:36:07;100282.81;;;22.26;43.16
8637;BME280;4356;49.068;8.658;2023-05-24T04:38:35;100280.94;;;22.26;42.96
8637;BME280;4356;49.068;8.658;2023-05-24T04:41:03;100290.31;;;22.30;43.13
8637;BME280;4356;49.068;8.658;2023-05-24T04:43:30;100284.47;;;22.27;43.13
8637;BME280;4356;49.068;8.658;2023-05-24T04:45:56;100282.56;;;22.27;42.99
8637;BME280;4356;49.068;8.658;2023-05-24T04:48:23;100282.22;;;22.24;43.18
8637;BME280;4356;49.068;8.658;2023-05-24T04:50:56;100298.16;;;22.27;43.07
8637;BME280;4356;49.068;8.658;2023-05-24T04:53:23;100292.69;;;22.27;43.45
8637;BME280;4356;49.068;8.658;2023-05-24T04:55:49;100280.91;;;22.15;43.00
8637;BME280;4356;49.068;8.658;2023-05-24T04:58:15;100290.44;;;22.24;42.98
8637;BME280;4356;49.068;8.658;2023-05-24T05:00:41;100296.50;;;22.26;42.92
8637;BME280;4356;49.068;8.658;2023-05-24T05:03:07;100297.56;;;22.25;43.11
8637;BME280;4356;49.068;8.658;2023-05-24T05:05:33;100295.91;;;22.24;43.12
8637;BME280;4356;49.068;8.658;2023-05-24T05:07:59;100291.13;;;22.19;42.95
8637;BME280;4356;49.068;8.658;2023-05-24T05:10:25;100300.78;;;22.22;43.21
8637;BME280;4356;49.068;8.658;2023-05-24T05:12:51;100289.47;;;22.18;43.00
8637;BME280;4356;49.068;8.658;2023-05-24T05:15:16;100289.13;;;22.15;42.83
8637;BME280;4356;49.068;8.658;2023-05-24T05:17:42;100298.28;;;22.20;43.10
8637;BME280;4356;49.068;8.658;2023-05-24T05:20:07;100302.94;;;22.20;43.02
8637;BME280;4356;49.068;8.658;2023-05-24T05:22:33;100292.34;;;22.12;42.91
8637;BME280;4356;49.068;8.658;2023-05-24T05:24:59;100308.41;;;22.20;42.91
8637;BME280;4356;49.068;8.658;2023-05-24T05:27:25;100279.09;;;22.09;42.79
8637;BME280;4356;49.068;8.658;2023-05-24T05:29:51;100298.53;;;22.19;43.02
8637;BME280;4356;49.068;8.658;2023-05-24T05:32:16;100294.84;;;22.13;42.94
8637;BME280;4356;49.068;8.658;2023-05-24T05:34:42;100289.97;;;22.15;43.05
8637;BME280;4356;49.068;8.658;2023-05-24T05:37:07;100274.72;;;22.08;43.15
8637;BME280;4356;49.068;8.658;2023-05-24T05:39:33;100289.97;;;22.15;43.14
8637;BME280;4356;49.068;8.658;2023-05-24T05:41:58;100288.28;;;22.14;43.01
8637;BME280;4356;49.068;8.658;2023-05-24T05:44:25;100285.09;;;22.17;42.89
8637;BME280;4356;49.068;8.658;2023-05-24T05:46:50;100282.00;;;22.14;42.97
8637;BME280;4356;49.068;8.658;2023-05-24T05:49:16;100290.56;;;22.17;42.93
8637;BME280;4356;49.068;8.658;2023-05-24T05:51:43;100293.28;;;22.17;42.98
8637;BME280;4356;49.068;8.658;2023-05-24T05:54:09;100280.44;;;22.06;42.99
8637;BME280;4356;49.068;8.658;2023-05-24T05:56:40;100293.28;;;22.17;42.89
8637;BME280;4356;49.068;8.658;2023-05-24T05:59:10;100291.84;;;22.15;43.17
8637;BME280;4356;49.068;8.658;2023-05-24T06:01:36;100295.19;;;22.17;43.07
8637;BME280;4356;49.068;8.658;2023-05-24T06:04:02;100297.94;;;22.17;42.65
8637;BME280;4356;49.068;8.658;2023-05-24T06:06:27;100309.94;;;22.16;43.03
8637;BME280;4356;49.068;8.658;2023-05-24T06:08:53;100296.50;;;22.14;43.01
8637;BME280;4356;49.068;8.658;2023-05-24T06:11:18;100291.50;;;22.11;43.08
8637;BME280;4356;49.068;8.658;2023-05-24T06:13:44;100304.81;;;22.19;42.89
8637;BME280;4356;49.068;8.658;2023-05-24T06:16:09;100298.97;;;22.16;43.17
8637;BME280;4356;49.068;8.658;2023-05-24T06:18:35;100308.03;;;22.16;42.84
8637;BME280;4356;49.068;8.658;2023-05-24T06:21:01;100309.25;;;22.20;42.76
8637;BME280;4356;49.068;8.658;2023-05-24T06:23:27;100314.13;;;22.18;42.84
8637;BME280;4356;49.068;8.658;2023-05-24T06:25:52;100313.28;;;22.18;43.03
8637;BME280;4356;49.068;8.658;2023-05-24T06:28:18;100316.84;;;22.18;42.97
8637;BME280;4356;49.068;8.658;2023-05-24T06:30:44;100326.72;;;22.19;43.07
8637;BME280;4356;49.068;8.658;2023-05-24T06:33:09;100330.06;;;22.21;43.08
8637;BME280;4356;49.068;8.658;2023-05-24T06:35:35;100328.41;;;22.20;42.60
8637;BME280;4356;49.068;8.658;2023-05-24T06:38:00;100339.72;;;22.24;42.76
8637;BME280;4356;49.068;8.658;2023-05-24T06:40:26;100327.81;;;22.18;42.86
8637;BME280;4356;49.068;8.658;2023-05-24T06:42:51;100331.50;;;22.24;42.94
8637;BME280;4356;49.068;8.658;2023-05-24T06:45:17;100329.84;;;22.23;42.73
8637;BME280;4356;49.068;8.658;2023-05-24T06:47:43;100339.47;;;22.25;42.73
8637;BME280;4356;49.068;8.658;2023-05-24T06:50:09;100333.16;;;22.25;42.68
8637;BME280;4356;49.068;8.658;2023-05-24T06:52:34;100333.75;;;22.27;42.63
8637;BME280;4356;49.068;8.658;2023-05-24T06:55:00;100335.69;;;22.26;42.68
8637;BME280;4356;49.068;8.658;2023-05-24T06:57:25;100333.75;;;22.27;42.89
8637;BME280;4356;49.068;8.658;2023-05-24T06:59:51;100343.06;;;22.26;42.70
8637;BME280;4356;49.068;8.658;2023-05-24T07:02:16;100348.03;;;22.29;42.67
8637;BME280;4356;49.068;8.658;2023-05-24T07:04:42;100351.63;;;22.29;42.61
8637;BME280;4356;49.068;8.658;2023-05-24T07:07:08;100345.31;;;22.29;42.66
8637;BME280;4356;49.068;8.658;2023-05-24T07:09:38;100354.97;;;22.31;42.71
8637;BME280;4356;49.068;8.658;2023-05-24T07:12:04;100356.03;;;22.30;42.67
8637;BME280;4356;49.068;8.658;2023-05-24T07:14:30;100365.69;;;22.33;42.50
8637;BME280;4356;49.068;8.658;2023-05-24T07:16:56;100365.19;;;22.36;42.47
8637;BME280;4356;49.068;8.658;2023-05-24T07:19:24;100371.28;;;22.38;42.90
8637;BME280;4356;49.068;8.658;2023-05-24T07:21:54;100372.97;;;22.39;42.24
8637;BME280;4356;49.068;8.658;2023-05-24T07:24:20;100366.41;;;22.40;42.54
8637;BME280;4356;49.068;8.658;2023-05-24T07:26:47;100369.13;;;22.40;42.22
8637;BME280;4356;49.068;8.658;2023-05-24T07:29:13;100377.13;;;22.41;42.13
8637;BME280;4356;49.068;8.658;2023-05-24T07:31:38;100371.88;;;22.40;42.22
8637;BME280;4356;49.068;8.658;2023-05-24T07:34:04;100371.03;;;22.39;42.14
8637;BME280;4356;49.068;8.658;2023-05-24T07:36:29;100379.41;;;22.44;42.21
8637;BME280;4356;49.068;8.658;2023-05-24T07:38:57;100376.41;;;22.46;42.17
8637;BME280;4356;49.068;8.658;2023-05-24T07:41:25;100377.84;;;22.48;42.20
8637;BME280;4356;49.068;8.658;2023-05-24T07:43:53;100377.22;;;22.46;42.23
8637;BME280;4356;49.068;8.658;2023-05-24T07:46:18;100380.13;;;22.52;42.30
8637;BME280;4356;49.068;8.658;2023-05-24T07:48:44;100369.63;;;22.48;42.49
8637;BME280;4356;49.068;8.658;2023-05-24T07:51:10;100376.28;;;22.52;41.95
8637;BME280;4356;49.068;8.658;2023-05-24T07:53:36;100379.63;;;22.55;42.09
8637;BME280;4356;49.068;8.658;2023-05-24T07:56:02;100376.91;;;22.55;42.08
8637;BME280;4356;49.068;8.658;2023-05-24T07:58:28;100380.03;;;22.58;42.08
8637;BME280;4356;49.068;8.658;2023-05-24T08:00:53;100389.69;;;22.61;42.03
8637;BME280;4356;49.068;8.658;2023-05-24T08:03:19;100383.97;;;22.62;41.89
8637;BME280;4356;49.068;8.658;2023-05-24T08:05:45;100374.06;;;22.61;41.93
8637;BME280;4356;49.068;8.658;2023-05-24T08:08:10;100377.53;;;22.68;41.73
8637;BME280;4356;49.068;8.658;2023-05-24T08:10:36;100373.47;;;22.71;41.73
8637;BME280;4356;49.068;8.658;2023-05-24T08:13:02;100380.84;;;22.70;41.86
8637;BME280;4356;49.068;8.658;2023-05-24T08:15:29;100366.94;;;22.72;41.61
8637;BME280;4356;49.068;8.658;2023-05-24T08:17:54;100374.06;;;22.73;41.74
8637;BME280;4356;49.068;8.658;2023-05-24T08:20:20;100367.53;;;22.74;41.63
8637;BME280;4356;49.068;8.658;2023-05-24T08:22:46;100378.63;;;22.79;41.42
8637;BME280;4356;49.068;8.658;2023-05-24T08:25:12;100373.72;;;22.81;41.42
8637;BME280;4356;49.068;8.658;2023-05-24T08:27:38;100370.75;;;22.82;41.35
8637;BME280;4356;49.068;8.658;2023-05-24T08:30:06;100375.16;;;22.83;41.29
8637;BME280;4356;49.068;8.658;2023-05-24T08:32:32;100376.34;;;22.87;41.45
8637;BME280;4356;49.068;8.658;2023-05-24T08:34:58;100363.13;;;22.84;41.34
8637;BME280;4356;49.068;8.658;2023-05-24T08:37:23;100369.78;;;22.88;41.36
8637;BME280;4356;49.068;8.658;2023-05-24T08:39:49;100373.34;;;22.89;41.27
8637;BME280;4356;49.068;8.658;2023-05-24T08:42:15;100376.44;;;22.92;41.25
8637;BME280;4356;49.068;8.658;2023-05-24T08:44:47;100385.88;;;22.96;41.09
8637;BME280;4356;49.068;8.658;2023-05-24T08:47:19;100383.97;;;22.97;41.24
8637;BME280;4356;49.068;8.658;2023-05-24T08:49:46;100381.22;;;22.97;41.08
8637;BME280;4356;49.068;8.658;2023-05-24T08:52:12;100387.91;;;23.01;40.95
8637;BME280;4356;49.068;8.658;2023-05-24T08:54:39;100390.41;;;23.02;40.95
8637;BME280;4356;49.068;8.658;2023-05-24T08:57:05;100358.09;;;22.93;40.85
8637;BME280;4356;49.068;8.658;2023-05-24T08:59:32;100380.03;;;23.04;40.86
8637;BME280;4356;49.068;8.658;2023-05-24T09:01:58;100382.53;;;23.06;40.91
8637;BME280;4356;49.068;8.658;2023-05-24T09:04:25;100372.97;;;23.08;40.66
8637;BME280;4356;49.068;8.658;2023-05-24T09:06:52;100384.19;;;23.07;40.65
8637;BME280;4356;49.068;8.658;2023-05-24T09:09:20;100380.38;;;23.08;40.61
8637;BME280;4356;49.068;8.658;2023-05-24T09:11:48;100369.53;;;23.01;40.57
8637;BME280;4356;49.068;8.658;2023-05-24T09:14:16;100384.28;;;23.12;40.62
8637;BME280;4356;49.068;8.658;2023-05-24T09:16:43;100380.50;;;23.13;40.75
8637;BME280;4356;49.068;8.658;2023-05-24T09:19:09;100368.81;;;23.06;40.62
8637;BME280;4356;49.068;8.658;2023-05-24T09:21:34;100378.34;;;23.15;40.39
8637;BME280;4356;49.068;8.658;2023-05-24T09:24:00;100385.00;;;23.19;40.75
8637;BME280;4356;49.068;8.658;2023-05-24T09:26:28;100377.75;;;23.13;40.71
8637;BME280;4356;49.068;8.658;2023-05-24T09:28:55;100393.09;;;23.25;40.62
8637;BME280;4356;49.068;8.658;2023-05-24T09:31:35;100391.78;;;23.28;40.52
8637;BME280;4356;49.068;8.658;2023-05-24T09:34:01;100393.47;;;23.29;40.51
8637;BME280;4356;49.068;8.658;2023-05-24T09:36:28;100383.34;;;23.29;40.55
8637;BME280;4356;49.068;8.658;2023-05-24T09:39:08;100394.66;;;23.33;40.38
8637;BME280;4356;49.068;8.658;2023-05-24T09:41:37;100392.03;;;23.38;40.45
8637;BME280;4356;49.068;8.658;2023-05-24T09:44:02;100388.69;;;23.36;40.31
8637;BME280;4356;49.068;8.658;2023-05-24T09:46:34;100391.78;;;23.39;40.37
8637;BME280;4356;49.068;8.658;2023-05-24T09:49:00;100389.63;;;23.41;40.15
8637;BME280;4356;49.068;8.658;2023-05-24T09:51:32;100381.75;;;23.45;40.13
8637;BME280;4356;49.068;8.658;2023-05-24T09:54:01;100380.44;;;23.48;40.05
8637;BME280;4356;49.068;8.658;2023-05-24T09:56:28;100375.56;;;23.50;40.02
8637;BME280;4356;49.068;8.658;2023-05-24T09:58:55;100380.03;;;23.56;39.96
8637;BME280;4356;49.068;8.658;2023-05-24T10:01:22;100375.91;;;23.53;39.92
8637;BME280;4356;49.068;8.658;2023-05-24T10:03:52;100376.59;;;23.60;39.95
8637;BME280;4356;49.068;8.658;2023-05-24T10:06:18;100378.47;;;23.60;40.01
8637;BME280;4356;49.068;8.658;2023-05-24T10:08:44;100371.94;;;23.61;39.83
8637;BME280;4356;49.068;8.658;2023-05-24T10:11:12;100365.69;;;23.65;39.87
8637;BME280;4356;49.068;8.658;2023-05-24T10:13:38;100369.63;;;23.69;39.89
8637;BME280;4356;49.068;8.658;2023-05-24T10:16:04;100366.63;;;23.71;39.46
8637;BME280;4356;49.068;8.658;2023-05-24T10:18:30;100362.25;;;23.70;39.68
8637;BME280;4356;49.068;8.658;2023-05-24T10:20:56;100371.16;;;23.77;39.66
8637;BME280;4356;49.068;8.658;2023-05-24T10:23:29;100360.19;;;23.77;39.52
8637;BME280;4356;49.068;8.658;2023-05-24T10:26:03;100341.94;;;23.71;39.82
8637;BME280;4356;49.068;8.658;2023-05-24T10:28:35;100351.19;;;23.81;39.78
8637;BME280;4356;49.068;8.658;2023-05-24T10:31:10;100362.84;;;23.88;39.56
8637;BME280;4356;49.068;8.658;2023-05-24T10:33:37;100358.19;;;23.89;39.58
8637;BME280;4356;49.068;8.658;2023-05-24T10:36:06;100359.03;;;23.89;39.53
8637;BME280;4356;49.068;8.658;2023-05-24T10:38:34;100354.22;;;23.96;39.69
8637;BME280;4356;49.068;8.658;2023-05-24T10:41:01;100342.41;;;23.96;39.57
8637;BME280;4356;49.068;8.658;2023-05-24T10:43:27;100332.50;;;23.95;39.40
8637;BME280;4356;49.068;8.658;2023-05-24T10:45:53;100337.88;;;24.01;39.55
8637;BME280;4356;49.068;8.658;2023-05-24T10:50:53;100331.31;;;24.02;39.42
8637;BME280;4356;49.068;8.658;2023-05-24T10:53:22;100334.94;;;24.08;39.53
8637;BME280;4356;49.068;8.658;2023-05-24T10:55:54;100347.78;;;24.19;39.42
8637;BME280;4356;49.068;8.658;2023-05-24T10:58:25;100339.06;;;24.22;39.28
8637;BME280;4356;49.068;8.658;2023-05-24T11:00:51;100338.56;;;24.25;39.31
8637;BME280;4356;49.068;8.658;2023-05-24T11:03:17;100330.31;;;24.25;39.08
8637;BME280;4356;49.068;8.658;2023-05-24T11:08:30;100335.16;;;24.34;39.10
8637;BME280;4356;49.068;8.658;2023-05-24T11:11:13;100341.22;;;24.36;39.04
8637;BME280;4356;49.068;8.658;2023-05-24T11:13:41;100328.09;;;24.38;39.05
8637;BME280;4356;49.068;8.658;2023-05-24T11:16:07;100324.91;;;24.46;38.90
8637;BME280;4356;49.068;8.658;2023-05-24T11:18:33;100321.88;;;24.48;38.87
8637;BME280;4356;49.068;8.658;2023-05-24T11:21:05;100325.28;;;24.55;38.92
8637;BME280;4356;49.068;8.658;2023-05-24T11:23:31;100320.06;;;24.54;38.76
8637;BME280;4356;49.068;8.658;2023-05-24T11:25:57;100323.72;;;24.59;38.91
8637;BME280;4356;49.068;8.658;2023-05-24T11:28:22;100326.22;;;24.61;38.98
8637;BME280;4356;49.068;8.658;2023-05-24T11:30:48;100306.06;;;24.55;38.99
8637;BME280;4356;49.068;8.658;2023-05-24T11:33:22;100310.31;;;24.63;38.84
8637;BME280;4356;49.068;8.658;2023-05-24T11:35:54;100319.72;;;24.67;38.49
8637;BME280;4356;49.068;8.658;2023-05-24T11:38:20;100306.22;;;24.65;37.62
8637;BME280;4356;49.068;8.658;2023-05-24T11:40:48;100312.03;;;24.69;37.47
8637;BME280;4356;49.068;8.658;2023-05-24T11:43:17;100298.81;;;24.66;37.09
8637;BME280;4356;49.068;8.658;2023-05-24T11:45:45;100300.41;;;24.62;36.91
8637;BME280;4356;49.068;8.658;2023-05-24T11:48:13;100305.44;;;24.70;37.20
8637;BME280;4356;49.068;8.658;2023-05-24T11:50:46;100301.66;;;24.71;36.78
8637;BME280;4356;49.068;8.658;2023-05-24T11:53:18;100299.50;;;24.73;35.90
8637;BME280;4356;49.068;8.658;2023-05-24T11:55:45;100297.22;;;24.70;35.49
8637;BME280;4356;49.068;8.658;2023-05-24T11:58:24;100300.63;;;24.77;35.24
8637;BME280;4356;49.068;8.658;2023-05-24T12:00:51;100304.22;;;24.77;34.87
8637;BME280;4356;49.068;8.658;2023-05-24T12:03:17;100291.25;;;24.73;34.92
8637;BME280;4356;49.068;8.658;2023-05-24T12:05:43;100292.66;;;24.75;34.76
8637;BME280;4356;49.068;8.658;2023-05-24T12:08:10;100299.06;;;24.81;34.07
8637;BME280;4356;49.068;8.658;2023-05-24T12:10:42;100292.75;;;24.80;33.87
8637;BME280;4356;49.068;8.658;2023-05-24T12:13:24;100294.13;;;24.83;34.29
8637;BME280;4356;49.068;8.658;2023-05-24T12:15:54;100275.22;;;24.70;34.01
8637;BME280;4356;49.068;8.658;2023-05-24T12:18:24;100261.03;;;24.73;33.85
8637;BME280;4356;49.068;8.658;2023-05-24T12:20:51;100269.34;;;24.78;33.74
8637;BME280;4356;49.068;8.658;2023-05-24T12:23:23;100279.63;;;24.87;33.66
8637;BME280;4356;49.068;8.658;2023-05-24T12:25:49;100273.81;;;24.84;33.33
8637;BME280;4356;49.068;8.658;2023-05-24T12:28:18;100273.03;;;24.88;32.96
8637;BME280;4356;49.068;8.658;2023-05-24T12:30:48;100262.25;;;24.82;32.74
8637;BME280;4356;49.068;8.658;2023-05-24T12:33:13;100277.69;;;24.88;32.75
8637;BME280;4356;49.068;8.658;2023-05-24T12:35:39;100264.53;;;24.90;32.90
8637;BME280;4356;49.068;8.658;2023-05-24T12:38:09;100264.53;;;24.90;32.93
8637;BME280;4356;49.068;8.658;2023-05-24T12:40:35;100269.53;;;24.93;32.73
8637;BME280;4356;49.068;8.658;2023-05-24T12:43:03;100266.78;;;24.93;32.54
8637;BME280;4356;49.068;8.658;2023-05-24T12:45:30;100263.78;;;24.94;32.39
8637;BME280;4356;49.068;8.658;2023-05-24T12:47:58;100256.91;;;24.97;32.17
8637;BME280;4356;49.068;8.658;2023-05-24T12:50:27;100247.53;;;24.93;32.16
8637;BME280;4356;49.068;8.658;2023-05-24T12:52:52;100239.28;;;24.93;32.09
8637;BME280;4356;49.068;8.658;2023-05-24T12:55:19;100236.28;;;24.94;32.13
8637;BME280;4356;49.068;8.658;2023-05-24T12:57:45;100256.75;;;25.03;32.35
8637;BME280;4356;49.068;8.658;2023-05-24T13:00:25;100242.09;;;24.98;32.13
8637;BME280;4356;49.068;8.658;2023-05-24T13:02:55;100247.66;;;25.03;31.99
8637;BME280;4356;49.068;8.658;2023-05-24T13:05:23;100247.97;;;25.06;32.01
8637;BME280;4356;49.068;8.658;2023-05-24T13:07:50;100254.06;;;25.08;31.46
8637;BME280;4356;49.068;8.658;2023-05-24T13:10:16;100235.25;;;25.00;32.11
8637;BME280;4356;49.068;8.658;2023-05-24T13:12:44;100245.53;;;25.10;31.87
8637;BME280;4356;49.068;8.658;2023-05-24T13:15:10;100221.81;;;25.04;31.37
8637;BME280;4356;49.068;8.658;2023-05-24T13:17:35;100236.22;;;25.11;31.65
8637;BME280;4356;49.068;8.658;2023-05-24T13:20:02;100233.47;;;25.11;31.56
8637;BME280;4356;49.068;8.658;2023-05-24T13:22:31;100232.38;;;25.12;31.77
8637;BME280;4356;49.068;8.658;2023-05-24T13:24:58;100237.09;;;25.16;31.92
8637;BME280;4356;49.068;8.658;2023-05-24T13:27:24;100231.84;;;25.15;32.20